Time;durP1;ratioP1;P1;durP2;ratioP2;P2;SDS_P1;SDS_P2;PMS_P1;PMS_P2;Temp;Humidity;BMP_temperature;BMP_pressure;BME280_temperature;BME280_humidity;BME280_pressure;Samples;Min_cycle;Max_cycle;Signal;HPM_P1;HPM_P2
2021/10/26 00:03:09;;;;;;;;;;;6.50;99.90;;;;;;21049700;28;19918;-80
2021/10/26 00:13:10;;;;;;;;;;;6.70;99.90;;;;;;21071148;28;19916;-81
2021/10/26 00:23:11;;;;;;;;;;;6.80;99.90;;;;;;21068549;28;19913;-80
2021/10/26 00:33:11;;;;;;;;;;;7.00;99.90;;;;;;21068260;28;19917;-80
2021/10/26 00:43:12;;;;;;;;;;;6.80;99.90;;;;;;21050947;28;19912;-81
2021/10/26 00:53:19;;;;;;;;;;;6.80;99.90;;;;;;21032229;28;19928;-80
2021/10/26 01:03:22;;;;;;;;;;;6.90;99.90;;;;;;21054106;28;20401;-80
2021/10/26 01:13:26;;;;;;;;;;;7.00;99.90;;;;;;21064978;28;20003;-81
2021/10/26 01:23:28;;;;;;;;;;;7.10;99.90;;;;;;21083461;28;19950;-79
2021/10/26 01:33:30;;;;;;;;;;;7.10;99.90;;;;;;21058444;28;19925;-81
2021/10/26 01:43:42;;;;;;;;;;;7.10;99.90;;;;;;21062054;28;19912;-81
2021/10/26 01:53:43;;;;;;;;;;;7.10;99.90;;;;;;21059192;28;19912;-81
2021/10/26 02:03:47;;;;;;;;;;;7.10;99.90;;;;;;21060093;28;19924;-80
2021/10/26 02:13:48;;;;;;;;;;;7.00;99.90;;;;;;21043983;28;19913;-79
2021/10/26 02:23:49;;;;;;;;;;;7.00;99.90;;;;;;21059020;28;19913;-81
2021/10/26 02:33:50;;;;;;;;;;;7.20;99.90;;;;;;21057871;28;19924;-80
2021/10/26 02:43:51;;;;;;;;;;;7.30;99.90;;;;;;21055739;28;19920;-80
2021/10/26 02:53:51;;;;;;;;;;;7.30;99.90;;;;;;21065569;28;19912;-79
2021/10/26 03:03:52;;;;;;;;;;;7.20;99.90;;;;;;20982613;28;19964;-80
2021/10/26 03:13:53;;;;;;;;;;;7.20;99.90;;;;;;20983476;28;20367;-80
2021/10/26 03:23:56;;;;;;;;;;;7.30;99.90;;;;;;20984593;28;19917;-80
2021/10/26 03:33:57;;;;;;;;;;;7.10;99.90;;;;;;20984661;28;19928;-80
2021/10/26 03:43:58;;;;;;;;;;;7.20;99.90;;;;;;20971834;28;19931;-80
2021/10/26 03:53:59;;;;;;;;;;;7.00;99.90;;;;;;20980194;28;19919;-81
2021/10/26 04:04:00;;;;;;;;;;;7.10;99.90;;;;;;20962675;28;19916;-80
2021/10/26 04:14:03;;;;;;;;;;;7.10;99.90;;;;;;20966093;28;19913;-81
2021/10/26 04:24:05;;;;;;;;;;;7.10;99.90;;;;;;20954285;28;20387;-79
2021/10/26 04:34:05;;;;;;;;;;;7.00;99.90;;;;;;20983571;28;19924;-79
2021/10/26 04:44:06;;;;;;;;;;;7.10;99.90;;;;;;20985978;28;19924;-80
2021/10/26 04:54:07;;;;;;;;;;;7.20;99.90;;;;;;20947018;28;20395;-78
2021/10/26 05:04:08;;;;;;;;;;;7.10;99.90;;;;;;20911359;28;19917;-80
2021/10/26 05:14:09;;;;;;;;;;;7.00;99.90;;;;;;20911131;28;19968;-79
2021/10/26 05:24:32;;;;;;;;;;;6.90;99.90;;;;;;20930341;28;19921;-80
2021/10/26 05:34:54;;;;;;;;;;;6.80;99.90;;;;;;20921019;28;19961;-81
2021/10/26 05:44:55;;;;;;;;;;;6.70;99.90;;;;;;20983375;28;19921;-82
2021/10/26 05:54:55;;;;;;;;;;;6.70;99.90;;;;;;20982355;28;19912;-81
2021/10/26 06:04:56;;;;;;;;;;;6.80;99.90;;;;;;21000585;28;20280;-80
2021/10/26 06:14:57;;;;;;;;;;;6.80;99.90;;;;;;20965043;28;19920;-81
2021/10/26 06:24:58;;;;;;;;;;;6.80;99.90;;;;;;20979626;28;19939;-82
2021/10/26 06:35:00;;;;;;;;;;;6.80;99.90;;;;;;20976538;28;19979;-82
2021/10/26 06:45:02;;;;;;;;;;;7.00;99.90;;;;;;20976416;28;19939;-80
2021/10/26 06:55:30;;;;;;;;;;;7.20;99.90;;;;;;20971902;28;19913;-81
2021/10/26 07:05:49;;;;;;;;;;;7.30;99.90;;;;;;20991320;28;19917;-79
2021/10/26 07:16:08;;;;;;;;;;;7.40;99.90;;;;;;20974400;28;19923;-80
2021/10/26 07:26:09;;;;;;;;;;;7.70;99.90;;;;;;20970774;28;19940;-79
2021/10/26 07:36:11;;;;;;;;;;;7.80;99.90;;;;;;20933307;28;19917;-79
2021/10/26 07:46:12;;;;;;;;;;;7.80;99.90;;;;;;20957446;28;19924;-80
2021/10/26 07:56:13;;;;;;;;;;;8.20;99.90;;;;;;20944098;28;19912;-80
2021/10/26 08:06:14;;;;;;;;;;;8.50;99.90;;;;;;20959257;28;19924;-80
2021/10/26 08:16:15;;;;;;;;;;;11.50;99.90;;;;;;20949714;28;20007;-80
2021/10/26 08:26:21;;;;;;;;;;;13.30;99.90;;;;;;20940655;28;19921;-79
2021/10/26 08:36:22;;;;;;;;;;;12.60;99.90;;;;;;20937374;28;19959;-79
2021/10/26 08:46:23;;;;;;;;;;;13.20;99.90;;;;;;20940135;28;19923;-79
2021/10/26 08:56:25;;;;;;;;;;;12.70;99.90;;;;;;20914316;28;20358;-79
2021/10/26 09:06:55;;;;;;;;;;;12.30;99.90;;;;;;20906461;28;19924;-80
2021/10/26 09:16:57;;;;;;;;;;;11.70;99.90;;;;;;20961971;28;19939;-80
2021/10/26 09:27:23;;;;;;;;;;;11.30;99.90;;;;;;20954999;28;19917;-79
2021/10/26 09:37:24;;;;;;;;;;;11.20;99.90;;;;;;20967069;28;19921;-80
2021/10/26 09:47:26;;;;;;;;;;;11.80;99.90;;;;;;20982912;28;19917;-79
2021/10/26 09:57:34;;;;;;;;;;;12.50;99.90;;;;;;20951337;28;20279;-79
2021/10/26 10:07:36;;;;;;;;;;;12.90;99.90;;;;;;20962510;28;19939;-80
2021/10/26 10:17:37;;;;;;;;;;;13.00;99.90;;;;;;20953529;28;19956;-79
2021/10/26 10:27:39;;;;;;;;;;;13.00;99.90;;;;;;20968597;28;19921;-79
2021/10/26 10:37:43;;;;;;;;;;;12.90;99.90;;;;;;20980834;28;20461;-81
2021/10/26 10:47:44;;;;;;;;;;;15.40;99.90;;;;;;20986947;28;19916;-80
2021/10/26 10:57:44;;;;;;;;;;;17.00;99.90;;;;;;20992645;28;19919;-79
2021/10/26 11:07:46;;;;;;;;;;;17.40;99.90;;;;;;20977177;28;19932;-79
2021/10/26 11:17:49;;;;;;;;;;;17.90;99.90;;;;;;20975042;28;19913;-80
2021/10/26 11:27:50;;;;;;;;;;;18.20;99.90;;;;;;20991605;28;19952;-81
2021/10/26 11:37:51;;;;;;;;;;;17.10;99.90;;;;;;20945512;28;20386;-83
2021/10/26 11:47:52;;;;;;;;;;;15.80;99.90;;;;;;20938065;28;19917;-80
2021/10/26 11:57:53;;;;;;;;;;;15.70;99.90;;;;;;20936483;28;19959;-83
2021/10/26 12:07:59;;;;;;;;;;;14.90;99.90;;;;;;20920717;28;19917;-83
2021/10/26 12:18:03;;;;;;;;;;;15.10;99.90;;;;;;20941495;28;19913;-83
2021/10/26 12:28:05;;;;;;;;;;;14.90;99.90;;;;;;20936660;28;19917;-82
2021/10/26 12:38:25;;;;;;;;;;;14.90;99.90;;;;;;20932250;28;19924;-80
2021/10/26 12:48:33;;;;;;;;;;;15.10;99.90;;;;;;20941892;28;20406;-83
2021/10/26 12:58:35;;;;;;;;;;;15.00;99.90;;;;;;20938517;28;19913;-81
2021/10/26 13:08:45;;;;;;;;;;;15.30;99.90;;;;;;20947566;28;19943;-81
2021/10/26 13:18:45;;;;;;;;;;;15.20;99.90;;;;;;20948192;28;19917;-83
2021/10/26 13:28:46;;;;;;;;;;;15.60;99.90;;;;;;20945420;28;19927;-80
2021/10/26 13:38:47;;;;;;;;;;;15.30;99.90;;;;;;20945013;28;19916;-79
2021/10/26 13:48:48;;;;;;;;;;;16.00;99.90;;;;;;20944247;28;19989;-81
2021/10/26 13:58:49;;;;;;;;;;;17.10;99.90;;;;;;20921017;28;19975;-81
2021/10/26 14:08:55;;;;;;;;;;;16.70;99.90;;;;;;20918408;28;20008;-81
2021/10/26 14:18:56;;;;;;;;;;;15.60;99.90;;;;;;20936743;28;20003;-82
2021/10/26 14:28:57;;;;;;;;;;;15.70;99.90;;;;;;20921448;28;19927;-80
2021/10/26 14:39:27;;;;;;;;;;;15.40;99.90;;;;;;20908199;28;19931;-81
2021/10/26 14:59:38;;;;;;;;;;;15.70;99.90;;;;;;20906055;28;19921;-83
2021/10/26 15:09:45;;;;;;;;;;;15.40;99.90;;;;;;20906625;28;20384;-82
2021/10/26 15:19:49;;;;;;;;;;;15.10;99.90;;;;;;20904148;28;19940;-82
2021/10/26 15:40:09;;;;;;;;;;;14.80;99.90;;;;;;20907459;28;19925;-81
2021/10/26 15:50:11;;;;;;;;;;;14.90;99.90;;;;;;20893039;28;19996;-81
2021/10/26 16:00:12;;;;;;;;;;;14.50;99.90;;;;;;20875303;28;20272;-81
2021/10/26 16:20:20;;;;;;;;;;;14.00;99.90;;;;;;20922603;28;19927;-81
2021/10/26 16:30:21;;;;;;;;;;;13.50;99.90;;;;;;20950815;28;19925;-80
2021/10/26 16:40:22;;;;;;;;;;;12.70;99.90;;;;;;20987568;28;19924;-80
2021/10/26 16:50:24;;;;;;;;;;;12.50;99.90;;;;;;20978808;28;19916;-81
2021/10/26 17:00:30;;;;;;;;;;;11.90;99.90;;;;;;20985205;28;19913;-80
2021/10/26 17:10:34;;;;;;;;;;;11.60;99.90;;;;;;20968216;28;19920;-80
2021/10/26 17:20:35;;;;;;;;;;;11.20;99.90;;;;;;20999019;28;19935;-80
2021/10/26 17:30:36;;;;;;;;;;;10.70;99.90;;;;;;20997461;28;19921;-83
2021/10/26 17:40:41;;;;;;;;;;;10.60;99.90;;;;;;20950547;28;19917;-80
2021/10/26 17:50:42;;;;;;;;;;;10.20;99.90;;;;;;20912264;28;19924;-81
2021/10/26 18:00:42;;;;;;;;;;;9.80;99.90;;;;;;20932445;28;19939;-81
2021/10/26 18:10:43;;;;;;;;;;;9.30;99.90;;;;;;20936698;28;20011;-81
2021/10/26 18:20:44;;;;;;;;;;;9.20;99.90;;;;;;20947495;28;20379;-82
2021/10/26 18:30:45;;;;;;;;;;;9.50;99.90;;;;;;20915628;28;19925;-83
2021/10/26 18:40:48;;;;;;;;;;;9.10;99.90;;;;;;20944481;28;19920;-80
2021/10/26 18:50:49;;;;;;;;;;;8.80;99.90;;;;;;20930421;28;20429;-81
2021/10/26 19:00:50;;;;;;;;;;;8.90;99.90;;;;;;20922767;28;19960;-78
2021/10/26 19:10:51;;;;;;;;;;;8.70;99.90;;;;;;20921145;28;19983;-80
2021/10/26 19:20:51;;;;;;;;;;;8.60;99.90;;;;;;20916497;28;20368;-80
2021/10/26 19:30:52;;;;;;;;;;;8.20;99.90;;;;;;20882534;28;19964;-81
2021/10/26 19:40:53;;;;;;;;;;;8.20;99.90;;;;;;20863779;28;20625;-80
2021/10/26 19:50:54;;;;;;;;;;;8.00;99.90;;;;;;20888351;28;19929;-80
2021/10/26 20:00:56;;;;;;;;;;;7.90;99.90;;;;;;20900304;28;19946;-80
2021/10/26 20:10:57;;;;;;;;;;;7.70;99.90;;;;;;20919553;28;20301;-81
2021/10/26 20:21:10;;;;;;;;;;;7.60;99.90;;;;;;20908709;28;19935;-82
2021/10/26 20:31:12;;;;;;;;;;;7.40;99.90;;;;;;20922913;28;19924;-82
2021/10/26 20:41:13;;;;;;;;;;;7.40;99.90;;;;;;20921534;28;19916;-81
2021/10/26 20:51:17;;;;;;;;;;;7.30;99.90;;;;;;20902810;28;19989;-79
2021/10/26 21:01:19;;;;;;;;;;;7.20;99.90;;;;;;20905144;28;20406;-81
2021/10/26 21:11:20;;;;;;;;;;;7.20;99.90;;;;;;20923975;28;19943;-81
2021/10/26 21:21:21;;;;;;;;;;;6.80;99.90;;;;;;20914693;28;19917;-81
2021/10/26 21:31:31;;;;;;;;;;;6.80;99.90;;;;;;20932552;28;20011;-83
2021/10/26 21:41:32;;;;;;;;;;;6.90;99.90;;;;;;20947849;28;19913;-83
2021/10/26 21:51:33;;;;;;;;;;;6.80;99.90;;;;;;20962283;28;19917;-80
2021/10/26 22:01:38;;;;;;;;;;;6.50;99.90;;;;;;20927953;28;19920;-81
2021/10/26 22:11:42;;;;;;;;;;;6.40;99.90;;;;;;20928136;28;19921;-82
2021/10/26 22:21:43;;;;;;;;;;;6.20;99.90;;;;;;20945297;28;19913;-83
2021/10/26 22:31:44;;;;;;;;;;;6.20;99.90;;;;;;20942004;28;19944;-83
2021/10/26 22:41:44;;;;;;;;;;;6.20;99.90;;;;;;20924139;28;20372;-83
2021/10/26 22:51:47;;;;;;;;;;;6.00;99.90;;;;;;20929428;28;19916;-81
2021/10/26 23:01:48;;;;;;;;;;;5.90;99.90;;;;;;20937578;28;19967;-80
2021/10/26 23:11:49;;;;;;;;;;;5.50;99.90;;;;;;20934209;28;20299;-82
2021/10/26 23:21:50;;;;;;;;;;;5.80;99.90;;;;;;20913716;28;19913;-82
2021/10/26 23:31:51;;;;;;;;;;;5.60;99.90;;;;;;20934811;28;20375;-80
2021/10/26 23:41:52;;;;;;;;;;;5.50;99.90;;;;;;20937561;28;19920;-79
2021/10/26 23:51:52;;;;;;;;;;;5.50;99.90;;;;;;20947078;28;19925;-82
